Time;durP1;ratioP1;P1;durP2;ratioP2;P2;SDS_P1;SDS_P2;PMS_P1;PMS_P2;Temp;Humidity;BMP_temperature;BMP_pressure;BME280_temperature;BME280_humidity;BME280_pressure;Samples;Min_cycle;Max_cycle;Signal;HPM_P1;HPM_P2
2022/09/17 00:01:51;;;;;;;;;;;13.60;99.70;;;;;;5052470;28;19920;-81
2022/09/17 00:04:16;;;;;;;;;;;13.50;99.90;;;;;;5059236;28;20313;-79
2022/09/17 00:06:42;;;;;;;;;;;13.40;99.90;;;;;;5058150;28;19917;-80
2022/09/17 00:09:08;;;;;;;;;;;13.50;99.90;;;;;;5060618;28;19935;-80
2022/09/17 00:11:35;;;;;;;;;;;13.50;99.90;;;;;;5055769;28;19916;-79
2022/09/17 00:14:01;;;;;;;;;;;13.40;99.90;;;;;;5053622;28;19924;-79
2022/09/17 00:16:31;;;;;;;;;;;13.40;99.90;;;;;;5057774;28;20008;-80
2022/09/17 00:18:58;;;;;;;;;;;13.40;99.90;;;;;;5051882;28;19916;-80
2022/09/17 00:21:24;;;;;;;;;;;13.40;99.90;;;;;;5052701;28;19977;-80
2022/09/17 00:23:53;;;;;;;;;;;13.30;99.90;;;;;;5052812;28;19991;-81
2022/09/17 00:26:19;;;;;;;;;;;13.30;99.90;;;;;;5054620;28;20386;-80
2022/09/17 00:28:48;;;;;;;;;;;13.40;99.90;;;;;;5052696;28;19920;-80
2022/09/17 00:31:13;;;;;;;;;;;13.40;99.90;;;;;;5053576;28;20032;-79
2022/09/17 00:33:39;;;;;;;;;;;13.40;99.90;;;;;;5057305;28;20683;-80
2022/09/17 00:36:04;;;;;;;;;;;13.30;99.90;;;;;;5053087;28;19920;-79
2022/09/17 00:38:30;;;;;;;;;;;13.30;99.90;;;;;;5095101;27;19917;-80
2022/09/17 00:40:56;;;;;;;;;;;13.20;99.90;;;;;;5056290;28;19924;-80
2022/09/17 00:43:55;;;;;;;;;;;13.20;99.90;;;;;;5050218;28;20729;-79
2022/09/17 00:46:40;;;;;;;;;;;13.20;99.90;;;;;;5046026;28;19920;-80
2022/09/17 00:49:10;;;;;;;;;;;13.20;99.90;;;;;;5046215;28;19935;-80
2022/09/17 00:51:37;;;;;;;;;;;13.20;99.90;;;;;;5047700;28;19924;-80
2022/09/17 00:54:05;;;;;;;;;;;13.10;99.90;;;;;;5045963;28;19987;-79
2022/09/17 00:56:32;;;;;;;;;;;13.10;99.90;;;;;;5045175;28;19917;-79
2022/09/17 00:58:59;;;;;;;;;;;13.00;99.90;;;;;;5047486;28;19916;-80
2022/09/17 01:01:25;;;;;;;;;;;13.00;99.90;;;;;;5047885;28;20037;-80
2022/09/17 01:03:50;;;;;;;;;;;13.10;99.90;;;;;;5047356;28;19916;-79
2022/09/17 01:06:24;;;;;;;;;;;13.10;99.90;;;;;;5049688;28;20428;-80
2022/09/17 01:09:12;;;;;;;;;;;13.00;99.90;;;;;;5052638;28;19994;-80
2022/09/17 01:11:45;;;;;;;;;;;12.90;99.90;;;;;;5039702;28;20212;-79
2022/09/17 01:14:17;;;;;;;;;;;12.80;99.90;;;;;;5044887;28;19935;-80
2022/09/17 01:16:45;;;;;;;;;;;12.60;99.90;;;;;;5035840;28;20305;-79
2022/09/17 01:19:13;;;;;;;;;;;12.70;99.90;;;;;;5046647;28;19917;-80
2022/09/17 01:21:45;;;;;;;;;;;12.60;99.90;;;;;;5048544;28;20436;-79
2022/09/17 01:24:30;;;;;;;;;;;12.70;99.90;;;;;;5047629;28;20538;-80
2022/09/17 01:27:21;;;;;;;;;;;12.50;99.90;;;;;;5050729;28;19921;-79
2022/09/17 01:29:52;;;;;;;;;;;12.50;99.90;;;;;;5055659;28;19972;-79
2022/09/17 01:32:33;;;;;;;;;;;12.50;99.90;;;;;;5053950;28;19967;-79
2022/09/17 01:35:01;;;;;;;;;;;12.50;99.90;;;;;;5053943;28;19920;-80
2022/09/17 01:37:36;;;;;;;;;;;12.40;99.90;;;;;;5055560;28;19925;-79
2022/09/17 01:40:14;;;;;;;;;;;12.40;99.90;;;;;;5053907;28;19921;-79
2022/09/17 01:42:45;;;;;;;;;;;12.50;99.90;;;;;;5060157;28;19920;-79
2022/09/17 01:45:14;;;;;;;;;;;12.30;99.90;;;;;;5051212;28;19921;-80
2022/09/17 01:47:48;;;;;;;;;;;12.30;99.90;;;;;;5084163;27;19927;-79
2022/09/17 01:50:20;;;;;;;;;;;12.30;99.90;;;;;;5048789;28;20759;-80
2022/09/17 01:52:48;;;;;;;;;;;12.40;99.90;;;;;;5053786;28;20045;-80
2022/09/17 01:55:14;;;;;;;;;;;12.30;99.90;;;;;;5051963;28;19942;-79
2022/09/17 01:57:45;;;;;;;;;;;12.20;99.90;;;;;;5053393;28;20011;-80
2022/09/17 02:00:14;;;;;;;;;;;12.30;99.90;;;;;;5056895;28;20348;-80
2022/09/17 02:02:56;;;;;;;;;;;12.20;99.90;;;;;;5052809;28;20304;-79
2022/09/17 02:05:35;;;;;;;;;;;12.20;99.90;;;;;;5049133;28;20109;-80
2022/09/17 02:08:03;;;;;;;;;;;12.10;99.90;;;;;;5052731;28;19920;-80
2022/09/17 02:10:30;;;;;;;;;;;12.10;99.90;;;;;;5081995;27;20279;-79
2022/09/17 02:13:00;;;;;;;;;;;12.10;99.90;;;;;;5084177;27;20420;-80
2022/09/17 02:15:28;;;;;;;;;;;12.20;99.90;;;;;;5051719;28;19917;-79
2022/09/17 02:18:06;;;;;;;;;;;12.10;99.90;;;;;;5052099;28;19920;-80
2022/09/17 02:20:39;;;;;;;;;;;12.10;99.90;;;;;;5049094;28;19928;-79
2022/09/17 02:23:10;;;;;;;;;;;12.10;99.90;;;;;;5056244;28;19916;-80
2022/09/17 02:25:39;;;;;;;;;;;12.10;99.90;;;;;;5050833;28;19931;-80
2022/09/17 02:28:10;;;;;;;;;;;12.10;99.90;;;;;;5049993;28;19923;-80
2022/09/17 02:30:36;;;;;;;;;;;12.10;99.90;;;;;;5066752;28;19924;-79
2022/09/17 02:33:04;;;;;;;;;;;12.10;99.90;;;;;;5054961;28;20089;-80
2022/09/17 02:35:30;;;;;;;;;;;12.00;99.90;;;;;;5044563;28;19920;-80
2022/09/17 02:37:55;;;;;;;;;;;12.00;99.90;;;;;;5051917;28;19917;-79
2022/09/17 02:40:22;;;;;;;;;;;11.80;99.90;;;;;;5053325;28;20407;-80
2022/09/17 02:43:10;;;;;;;;;;;11.90;99.90;;;;;;5053861;28;19916;-80
2022/09/17 02:45:53;;;;;;;;;;;11.90;99.90;;;;;;5050708;28;19916;-80
2022/09/17 02:48:31;;;;;;;;;;;11.80;99.90;;;;;;5083790;28;19927;-79
2022/09/17 02:51:03;;;;;;;;;;;11.80;99.90;;;;;;5051144;28;20002;-79
2022/09/17 02:53:37;;;;;;;;;;;11.80;99.90;;;;;;5055046;28;19951;-79
2022/09/17 02:56:08;;;;;;;;;;;11.80;99.90;;;;;;5048507;28;19987;-80
2022/09/17 02:58:40;;;;;;;;;;;11.70;99.90;;;;;;5053198;28;19920;-80
2022/09/17 03:01:08;;;;;;;;;;;11.80;99.90;;;;;;5051122;28;19970;-80
2022/09/17 03:03:38;;;;;;;;;;;11.70;99.90;;;;;;5049255;28;19913;-79
2022/09/17 03:06:04;;;;;;;;;;;11.70;99.90;;;;;;5097350;28;19927;-80
2022/09/17 03:08:38;;;;;;;;;;;11.70;99.90;;;;;;5056695;28;19921;-79
2022/09/17 03:11:05;;;;;;;;;;;11.70;99.90;;;;;;5053734;28;19923;-79
2022/09/17 03:13:31;;;;;;;;;;;11.70;99.90;;;;;;5055678;28;19917;-79
2022/09/17 03:15:56;;;;;;;;;;;11.70;99.90;;;;;;5052387;28;19916;-80
2022/09/17 03:18:22;;;;;;;;;;;11.70;99.90;;;;;;5060449;28;19917;-80
2022/09/17 03:20:48;;;;;;;;;;;11.70;99.90;;;;;;5056626;28;19920;-79
2022/09/17 03:23:13;;;;;;;;;;;11.50;99.90;;;;;;5059359;28;20438;-80
2022/09/17 03:25:39;;;;;;;;;;;11.50;99.90;;;;;;5052355;28;20620;-79
2022/09/17 03:28:05;;;;;;;;;;;11.50;99.90;;;;;;5053000;28;19916;-80
2022/09/17 03:30:30;;;;;;;;;;;11.50;99.90;;;;;;5088787;27;19935;-78
2022/09/17 03:32:56;;;;;;;;;;;11.50;99.90;;;;;;5051999;28;19916;-79
2022/09/17 03:35:21;;;;;;;;;;;11.40;99.90;;;;;;5057578;28;19967;-80
2022/09/17 03:37:47;;;;;;;;;;;11.30;99.90;;;;;;5062337;28;19916;-79
2022/09/17 03:40:12;;;;;;;;;;;11.40;99.90;;;;;;5052048;28;19928;-79
2022/09/17 03:42:38;;;;;;;;;;;11.40;99.90;;;;;;5054339;28;20801;-80
2022/09/17 03:45:04;;;;;;;;;;;11.30;99.90;;;;;;5054181;28;19924;-79
2022/09/17 03:47:29;;;;;;;;;;;11.20;99.90;;;;;;5051087;28;20579;-79
2022/09/17 03:49:55;;;;;;;;;;;11.20;99.90;;;;;;5057187;28;19933;-80
2022/09/17 03:52:20;;;;;;;;;;;11.20;99.90;;;;;;5070322;28;19954;-79
2022/09/17 03:54:47;;;;;;;;;;;11.10;99.90;;;;;;5053559;28;19924;-80
2022/09/17 03:57:12;;;;;;;;;;;11.10;99.90;;;;;;5054174;28;19920;-80
2022/09/17 03:59:38;;;;;;;;;;;11.10;99.90;;;;;;5058278;28;19926;-79
2022/09/17 04:02:03;;;;;;;;;;;11.10;99.90;;;;;;5057331;28;19927;-78
2022/09/17 04:04:29;;;;;;;;;;;11.10;99.90;;;;;;5055730;28;20627;-78
2022/09/17 04:06:54;;;;;;;;;;;11.10;99.90;;;;;;5061324;28;19917;-80
2022/09/17 04:09:20;;;;;;;;;;;11.10;99.90;;;;;;5055277;28;20401;-79
2022/09/17 04:11:45;;;;;;;;;;;11.10;99.90;;;;;;5052763;28;19921;-79
2022/09/17 04:14:11;;;;;;;;;;;11.00;99.90;;;;;;5084083;27;19960;-79
2022/09/17 04:16:36;;;;;;;;;;;11.10;99.90;;;;;;5055626;28;19916;-79
2022/09/17 04:19:02;;;;;;;;;;;11.10;99.90;;;;;;5057037;28;19924;-80
2022/09/17 04:21:27;;;;;;;;;;;11.00;99.90;;;;;;5061726;28;19920;-79
2022/09/17 04:23:53;;;;;;;;;;;11.00;99.90;;;;;;5089571;27;19924;-80
2022/09/17 04:26:18;;;;;;;;;;;10.90;99.90;;;;;;5083006;27;19966;-79
2022/09/17 04:28:44;;;;;;;;;;;10.80;99.90;;;;;;5053273;28;19975;-79
2022/09/17 04:31:09;;;;;;;;;;;10.80;99.90;;;;;;5056687;28;20834;-80
2022/09/17 04:33:36;;;;;;;;;;;10.70;99.90;;;;;;5055669;28;20011;-80
2022/09/17 04:36:02;;;;;;;;;;;10.60;99.90;;;;;;5052407;28;19917;-80
2022/09/17 04:38:27;;;;;;;;;;;10.60;99.90;;;;;;5055444;28;19923;-79
2022/09/17 04:40:56;;;;;;;;;;;10.50;99.90;;;;;;5062349;28;19995;-79
2022/09/17 04:43:21;;;;;;;;;;;10.60;99.90;;;;;;5054380;28;19985;-80
2022/09/17 04:45:48;;;;;;;;;;;10.60;99.90;;;;;;5055627;28;20368;-79
2022/09/17 04:48:13;;;;;;;;;;;10.60;99.90;;;;;;5053635;28;19928;-80
2022/09/17 04:50:39;;;;;;;;;;;10.60;99.90;;;;;;5090902;27;20583;-80
2022/09/17 04:53:04;;;;;;;;;;;10.60;99.90;;;;;;5069659;28;20366;-80
2022/09/17 04:55:30;;;;;;;;;;;10.60;99.90;;;;;;5052779;28;20348;-79
2022/09/17 04:57:56;;;;;;;;;;;10.60;99.90;;;;;;5052376;28;19927;-78
2022/09/17 05:00:22;;;;;;;;;;;10.50;99.90;;;;;;5053735;28;19934;-79
2022/09/17 05:02:49;;;;;;;;;;;10.50;99.90;;;;;;5051621;28;20340;-79
2022/09/17 05:05:14;;;;;;;;;;;10.50;99.90;;;;;;5057556;28;19917;-79
2022/09/17 05:07:41;;;;;;;;;;;10.50;99.90;;;;;;5060845;28;19924;-79
2022/09/17 05:10:07;;;;;;;;;;;10.40;99.90;;;;;;5053145;28;19931;-79
2022/09/17 05:12:32;;;;;;;;;;;10.40;99.90;;;;;;5055993;28;19920;-80
2022/09/17 05:14:58;;;;;;;;;;;10.40;99.90;;;;;;5056346;28;19939;-78
2022/09/17 05:17:24;;;;;;;;;;;10.40;99.90;;;;;;5053943;28;20290;-79
2022/09/17 05:19:49;;;;;;;;;;;10.40;99.90;;;;;;5064206;28;20090;-79
2022/09/17 05:22:14;;;;;;;;;;;10.40;99.90;;;;;;5063269;28;20424;-79
2022/09/17 05:24:40;;;;;;;;;;;10.30;99.90;;;;;;5060256;28;19913;-80
2022/09/17 05:27:06;;;;;;;;;;;10.40;99.90;;;;;;5062646;28;19928;-85
2022/09/17 05:29:31;;;;;;;;;;;10.50;99.90;;;;;;5064852;28;19920;-85
2022/09/17 05:31:57;;;;;;;;;;;11.20;99.90;;;;;;5063148;28;19959;-85
2022/09/17 05:34:22;;;;;;;;;;;11.00;99.90;;;;;;5063524;28;19916;-86
2022/09/17 05:36:48;;;;;;;;;;;11.30;99.90;;;;;;5063997;28;19920;-86
2022/09/17 05:39:14;;;;;;;;;;;11.30;99.90;;;;;;5060001;28;19917;-85
2022/09/17 05:41:39;;;;;;;;;;;11.20;99.90;;;;;;5062011;28;19920;-87
2022/09/17 05:44:05;;;;;;;;;;;11.10;99.90;;;;;;5067580;28;20368;-86
2022/09/17 05:46:30;;;;;;;;;;;11.00;99.90;;;;;;5063630;28;19966;-85
2022/09/17 05:48:56;;;;;;;;;;;11.40;99.90;;;;;;5059565;28;19920;-86
2022/09/17 05:51:22;;;;;;;;;;;11.90;99.90;;;;;;5063087;28;20468;-86
2022/09/17 05:53:48;;;;;;;;;;;12.10;99.90;;;;;;5053413;28;19955;-86
2022/09/17 05:56:14;;;;;;;;;;;12.50;99.90;;;;;;5055021;28;20393;-86
2022/09/17 05:58:40;;;;;;;;;;;12.60;99.90;;;;;;5057472;28;20019;-86
2022/09/17 06:01:05;;;;;;;;;;;13.10;99.90;;;;;;5050558;28;20019;-85
2022/09/17 06:03:31;;;;;;;;;;;13.40;99.90;;;;;;5060734;28;20455;-85
2022/09/17 06:05:57;;;;;;;;;;;13.70;99.90;;;;;;5056628;28;19916;-85
2022/09/17 06:08:23;;;;;;;;;;;13.40;99.90;;;;;;5050619;28;19924;-84
2022/09/17 06:10:49;;;;;;;;;;;13.50;99.90;;;;;;5054259;28;20382;-84
2022/09/17 06:13:15;;;;;;;;;;;13.90;99.90;;;;;;5057193;28;19922;-86
2022/09/17 06:15:41;;;;;;;;;;;14.40;99.90;;;;;;5052089;28;19932;-86
2022/09/17 06:18:06;;;;;;;;;;;14.70;99.90;;;;;;5058754;28;19925;-85
2022/09/17 06:20:32;;;;;;;;;;;14.90;99.40;;;;;;5049708;28;19916;-84
2022/09/17 06:22:58;;;;;;;;;;;14.60;99.50;;;;;;5053552;28;20656;-85
2022/09/17 06:25:24;;;;;;;;;;;14.10;99.70;;;;;;5052154;28;19938;-86
2022/09/17 06:27:49;;;;;;;;;;;14.20;99.90;;;;;;5048944;28;19921;-85
2022/09/17 06:30:15;;;;;;;;;;;14.60;99.20;;;;;;5051767;28;20674;-86
2022/09/17 06:32:40;;;;;;;;;;;14.80;98.80;;;;;;5054030;28;19920;-85
2022/09/17 06:35:07;;;;;;;;;;;14.20;99.70;;;;;;5047640;28;19921;-86
2022/09/17 06:37:33;;;;;;;;;;;14.40;99.90;;;;;;5048205;28;20740;-84
2022/09/17 06:39:58;;;;;;;;;;;14.30;99.40;;;;;;5049638;28;19974;-85
2022/09/17 06:42:24;;;;;;;;;;;14.40;99.90;;;;;;5050373;28;19924;-85
2022/09/17 06:44:50;;;;;;;;;;;14.50;99.90;;;;;;5048358;28;19920;-85
2022/09/17 06:47:15;;;;;;;;;;;14.70;99.90;;;;;;5052544;28;20411;-79
2022/09/17 06:49:41;;;;;;;;;;;14.90;99.60;;;;;;5049208;28;19932;-80
2022/09/17 06:52:06;;;;;;;;;;;16.30;96.80;;;;;;5053638;28;19923;-81
2022/09/17 06:54:32;;;;;;;;;;;17.00;94.50;;;;;;5051655;28;20031;-80
2022/09/17 06:56:58;;;;;;;;;;;17.00;93.60;;;;;;5078869;28;20286;-79
2022/09/17 06:59:24;;;;;;;;;;;17.20;93.40;;;;;;5047877;28;20415;-80
2022/09/17 07:01:49;;;;;;;;;;;17.00;92.30;;;;;;5049328;28;19921;-80
2022/09/17 07:04:17;;;;;;;;;;;17.60;92.70;;;;;;5054154;28;19916;-81
2022/09/17 07:06:43;;;;;;;;;;;18.10;91.70;;;;;;5052448;28;19920;-80
2022/09/17 07:09:09;;;;;;;;;;;17.70;91.30;;;;;;5053544;28;20480;-79
2022/09/17 07:11:35;;;;;;;;;;;17.70;91.60;;;;;;5048244;28;20050;-82
2022/09/17 07:14:00;;;;;;;;;;;17.90;90.80;;;;;;5056915;28;20589;-81
2022/09/17 07:16:26;;;;;;;;;;;18.00;90.50;;;;;;5050545;28;19939;-80
2022/09/17 07:18:52;;;;;;;;;;;18.10;90.10;;;;;;5053613;28;19916;-79
2022/09/17 07:21:17;;;;;;;;;;;18.60;89.60;;;;;;5057430;28;19919;-79
2022/09/17 07:23:44;;;;;;;;;;;18.00;90.00;;;;;;5054969;28;19927;-80
2022/09/17 07:26:14;;;;;;;;;;;18.30;87.10;;;;;;5050319;28;19928;-79
2022/09/17 07:28:40;;;;;;;;;;;18.20;88.00;;;;;;5047195;28;19927;-80
2022/09/17 07:31:06;;;;;;;;;;;18.50;86.30;;;;;;5049601;28;19943;-80
2022/09/17 07:33:33;;;;;;;;;;;18.60;86.00;;;;;;5069303;28;19916;-79
2022/09/17 07:35:59;;;;;;;;;;;18.70;85.60;;;;;;5055352;28;19916;-79
2022/09/17 07:38:26;;;;;;;;;;;18.90;86.20;;;;;;5083300;28;20309;-79
2022/09/17 07:40:54;;;;;;;;;;;19.20;84.30;;;;;;5054448;28;19917;-80
2022/09/17 07:43:20;;;;;;;;;;;19.80;82.00;;;;;;5048087;28;19916;-82
2022/09/17 07:45:45;;;;;;;;;;;20.00;81.40;;;;;;5051324;28;20400;-80
2022/09/17 07:48:11;;;;;;;;;;;20.20;80.30;;;;;;5055672;28;19940;-81
2022/09/17 07:50:36;;;;;;;;;;;19.80;79.70;;;;;;5052875;28;19928;-81
2022/09/17 07:53:03;;;;;;;;;;;20.30;80.60;;;;;;5057833;28;19923;-80
2022/09/17 07:55:28;;;;;;;;;;;20.10;80.70;;;;;;5046557;28;20010;-81
2022/09/17 07:57:54;;;;;;;;;;;20.60;77.30;;;;;;5052635;28;20388;-81
2022/09/17 08:00:20;;;;;;;;;;;21.10;77.00;;;;;;5055766;28;20019;-82
2022/09/17 08:02:51;;;;;;;;;;;19.60;76.30;;;;;;5059236;28;19960;-83
2022/09/17 08:05:16;;;;;;;;;;;19.60;76.70;;;;;;5044404;28;20445;-82
2022/09/17 08:07:42;;;;;;;;;;;20.00;75.80;;;;;;5054392;28;19966;-83
2022/09/17 08:10:08;;;;;;;;;;;20.20;74.50;;;;;;5054122;28;19928;-81
2022/09/17 08:12:33;;;;;;;;;;;19.60;75.10;;;;;;5050539;28;19917;-82
2022/09/17 08:14:59;;;;;;;;;;;20.00;74.10;;;;;;5051845;28;19954;-82
2022/09/17 08:17:24;;;;;;;;;;;20.80;73.00;;;;;;5053823;28;19912;-81
2022/09/17 08:19:50;;;;;;;;;;;20.50;72.30;;;;;;5044447;28;19917;-82
2022/09/17 08:22:16;;;;;;;;;;;20.20;72.80;;;;;;5051951;28;20004;-83
2022/09/17 08:24:41;;;;;;;;;;;20.50;70.50;;;;;;5044149;28;20020;-82
2022/09/17 08:27:07;;;;;;;;;;;20.00;71.20;;;;;;5045958;28;19912;-82
2022/09/17 08:29:32;;;;;;;;;;;20.90;70.50;;;;;;5055459;28;20780;-82
2022/09/17 08:31:58;;;;;;;;;;;20.40;71.80;;;;;;5064636;28;19916;-81
2022/09/17 08:34:23;;;;;;;;;;;20.40;70.20;;;;;;5077347;28;20348;-81
2022/09/17 08:36:49;;;;;;;;;;;21.00;69.40;;;;;;5080376;28;20494;-82
2022/09/17 08:39:14;;;;;;;;;;;21.00;68.80;;;;;;5061452;28;19912;-81
2022/09/17 08:41:58;;;;;;;;;;;20.60;68.00;;;;;;5063672;28;19928;-81
2022/09/17 08:44:24;;;;;;;;;;;21.10;66.00;;;;;;5058953;28;19909;-82
2022/09/17 08:46:52;;;;;;;;;;;21.30;68.10;;;;;;5064728;28;20472;-81
2022/09/17 08:49:29;;;;;;;;;;;21.50;65.20;;;;;;5097979;27;20351;-82
2022/09/17 08:51:58;;;;;;;;;;;20.70;66.60;;;;;;5065125;28;19978;-81
2022/09/17 08:54:38;;;;;;;;;;;21.50;66.40;;;;;;5076836;28;19928;-82
2022/09/17 08:57:07;;;;;;;;;;;21.80;63.30;;;;;;5062765;28;19916;-81
2022/09/17 08:59:40;;;;;;;;;;;21.40;63.00;;;;;;5051919;28;19950;-82
2022/09/17 09:02:44;;;;;;;;;;;22.20;63.90;;;;;;5044290;28;19963;-81
2022/09/17 09:05:14;;;;;;;;;;;21.80;61.40;;;;;;5041980;28;19917;-81
2022/09/17 09:07:51;;;;;;;;;;;20.60;57.90;;;;;;5041752;28;19924;-82
2022/09/17 09:10:28;;;;;;;;;;;21.10;59.60;;;;;;5042104;28;20081;-81
2022/09/17 09:12:55;;;;;;;;;;;20.50;58.20;;;;;;5042016;28;20488;-82
2022/09/17 09:15:25;;;;;;;;;;;21.10;57.90;;;;;;5023707;28;20429;-82
2022/09/17 09:17:51;;;;;;;;;;;21.40;57.80;;;;;;5042269;28;20444;-81
2022/09/17 09:20:35;;;;;;;;;;;22.20;57.60;;;;;;5042429;28;19912;-82
2022/09/17 09:23:27;;;;;;;;;;;21.90;56.80;;;;;;5040501;28;20385;-75
2022/09/17 09:25:56;;;;;;;;;;;22.10;56.40;;;;;;4993241;28;19923;-75
2022/09/17 09:28:30;;;;;;;;;;;21.80;57.40;;;;;;4999066;28;19940;-75
2022/09/17 09:30:56;;;;;;;;;;;22.10;54.70;;;;;;4997122;28;19936;-75
2022/09/17 09:33:34;;;;;;;;;;;20.60;55.70;;;;;;4999654;28;19917;-75
2022/09/17 09:36:00;;;;;;;;;;;21.60;55.00;;;;;;4995532;28;19930;-75
2022/09/17 09:38:31;;;;;;;;;;;21.30;54.70;;;;;;4997687;28;19921;-76
2022/09/17 09:41:10;;;;;;;;;;;21.10;54.70;;;;;;5006214;28;19956;-76
2022/09/17 09:43:45;;;;;;;;;;;21.40;55.30;;;;;;5011256;28;19960;-76
2022/09/17 09:46:29;;;;;;;;;;;20.70;54.10;;;;;;5008769;28;20000;-75
2022/09/17 09:49:12;;;;;;;;;;;19.80;54.10;;;;;;4983487;28;19976;-74
2022/09/17 09:51:38;;;;;;;;;;;19.20;54.20;;;;;;4980889;28;19914;-76
2022/09/17 09:54:24;;;;;;;;;;;19.00;56.50;;;;;;4981299;28;20552;-76
2022/09/17 09:57:21;;;;;;;;;;;18.70;54.90;;;;;;4984303;28;19922;-76
2022/09/17 09:59:47;;;;;;;;;;;18.60;54.20;;;;;;4951602;28;19945;-75
2022/09/17 10:02:13;;;;;;;;;;;18.90;56.90;;;;;;4965301;28;20477;-77
2022/09/17 10:04:38;;;;;;;;;;;19.00;56.60;;;;;;5019767;28;19979;-76
2022/09/17 10:07:08;;;;;;;;;;;18.90;57.70;;;;;;5018419;28;20398;-75
2022/09/17 10:09:35;;;;;;;;;;;19.00;55.90;;;;;;5000366;28;19921;-76
2022/09/17 10:12:20;;;;;;;;;;;18.60;56.60;;;;;;5000390;28;19918;-76
2022/09/17 10:14:46;;;;;;;;;;;18.80;57.10;;;;;;4993953;28;20015;-76
2022/09/17 10:17:19;;;;;;;;;;;18.60;56.20;;;;;;5013466;28;20126;-75
2022/09/17 10:20:07;;;;;;;;;;;18.40;58.00;;;;;;5009824;28;19918;-76
2022/09/17 10:22:34;;;;;;;;;;;18.80;59.10;;;;;;5000341;28;19979;-74
2022/09/17 10:25:00;;;;;;;;;;;18.70;57.10;;;;;;4999308;28;20143;-77
2022/09/17 10:27:26;;;;;;;;;;;18.30;56.00;;;;;;4999634;28;19949;-76
2022/09/17 10:30:02;;;;;;;;;;;18.30;57.40;;;;;;5018302;28;19929;-76
2022/09/17 10:32:28;;;;;;;;;;;18.50;59.60;;;;;;5012086;28;19917;-75
2022/09/17 10:35:04;;;;;;;;;;;18.30;58.70;;;;;;5033074;28;20329;-75
2022/09/17 10:37:32;;;;;;;;;;;18.50;59.80;;;;;;5060400;28;19920;-76
2022/09/17 10:39:57;;;;;;;;;;;18.40;59.60;;;;;;5047654;28;20011;-75
2022/09/17 10:42:23;;;;;;;;;;;18.40;58.80;;;;;;5060580;28;20023;-75
2022/09/17 10:44:53;;;;;;;;;;;18.30;59.00;;;;;;5063475;28;19912;-75
2022/09/17 10:47:23;;;;;;;;;;;18.60;58.30;;;;;;5061524;28;19916;-75
2022/09/17 10:49:52;;;;;;;;;;;18.80;57.90;;;;;;5062334;28;19924;-75
2022/09/17 10:52:44;;;;;;;;;;;18.60;57.00;;;;;;5062525;28;19921;-76
2022/09/17 10:55:28;;;;;;;;;;;18.40;56.70;;;;;;5058098;28;19912;-75
2022/09/17 10:58:03;;;;;;;;;;;18.30;56.60;;;;;;5062901;28;19916;-76
2022/09/17 11:00:38;;;;;;;;;;;18.30;55.80;;;;;;5060449;28;20396;-75
2022/09/17 11:03:10;;;;;;;;;;;18.10;57.20;;;;;;5059512;28;19951;-75
2022/09/17 11:05:54;;;;;;;;;;;18.20;57.40;;;;;;5060493;28;20380;-76
2022/09/17 11:08:25;;;;;;;;;;;18.00;58.30;;;;;;5062072;28;19912;-76
2022/09/17 11:11:00;;;;;;;;;;;18.20;58.00;;;;;;5062211;28;19927;-76
2022/09/17 11:13:33;;;;;;;;;;;18.10;57.20;;;;;;5062278;28;20437;-77
2022/09/17 11:16:05;;;;;;;;;;;18.20;57.10;;;;;;5058515;28;19952;-76
2022/09/17 11:18:39;;;;;;;;;;;18.40;58.30;;;;;;5083076;28;19913;-76
2022/09/17 11:21:08;;;;;;;;;;;18.30;58.20;;;;;;5064573;28;19913;-75
2022/09/17 11:23:45;;;;;;;;;;;18.10;58.10;;;;;;5083535;28;19912;-75
2022/09/17 11:26:25;;;;;;;;;;;18.10;57.00;;;;;;5061425;28;20009;-77
2022/09/17 11:29:02;;;;;;;;;;;18.20;57.30;;;;;;5058226;28;20368;-76
2022/09/17 11:31:43;;;;;;;;;;;17.80;57.20;;;;;;5076609;28;20343;-76
2022/09/17 11:34:21;;;;;;;;;;;17.60;56.90;;;;;;5062651;28;19916;-76
2022/09/17 11:37:04;;;;;;;;;;;17.50;56.80;;;;;;5086822;28;19919;-76
2022/09/17 11:39:40;;;;;;;;;;;17.60;56.70;;;;;;5069604;28;19920;-77
2022/09/17 11:42:09;;;;;;;;;;;17.80;57.50;;;;;;5062615;28;19954;-75
2022/09/17 11:44:40;;;;;;;;;;;17.80;57.60;;;;;;5065660;28;19966;-76
2022/09/17 11:47:19;;;;;;;;;;;17.60;59.20;;;;;;5046565;28;19917;-76
2022/09/17 11:49:49;;;;;;;;;;;17.60;58.30;;;;;;5049697;28;19968;-77
2022/09/17 11:52:27;;;;;;;;;;;17.90;59.40;;;;;;5069262;28;19923;-76
2022/09/17 11:55:08;;;;;;;;;;;17.70;58.90;;;;;;5062567;28;19920;-76
2022/09/17 11:57:36;;;;;;;;;;;18.00;60.40;;;;;;5054493;28;19930;-76
2022/09/17 12:00:07;;;;;;;;;;;18.00;58.30;;;;;;5049341;28;19932;-76
2022/09/17 12:02:55;;;;;;;;;;;17.80;59.30;;;;;;5061849;28;20015;-76
2022/09/17 12:05:26;;;;;;;;;;;17.80;58.50;;;;;;5097011;28;19913;-76
2022/09/17 12:07:58;;;;;;;;;;;17.60;57.50;;;;;;5064730;28;19975;-76
2022/09/17 12:10:26;;;;;;;;;;;17.70;57.60;;;;;;5063939;28;19928;-76
2022/09/17 12:13:10;;;;;;;;;;;17.90;58.40;;;;;;5064629;28;20614;-76
2022/09/17 12:15:38;;;;;;;;;;;18.00;58.10;;;;;;5044083;28;19987;-76
2022/09/17 12:18:22;;;;;;;;;;;18.10;57.30;;;;;;5046695;28;19916;-76
2022/09/17 12:20:49;;;;;;;;;;;18.10;57.10;;;;;;5049900;28;20793;-77
2022/09/17 12:23:18;;;;;;;;;;;18.00;57.90;;;;;;5047884;28;19967;-77
2022/09/17 12:25:55;;;;;;;;;;;17.90;55.80;;;;;;5043704;28;20031;-76
2022/09/17 12:28:27;;;;;;;;;;;17.90;56.20;;;;;;5045791;28;19991;-76
2022/09/17 12:31:06;;;;;;;;;;;17.90;58.50;;;;;;5060354;28;20511;-76
2022/09/17 12:33:35;;;;;;;;;;;17.80;57.30;;;;;;5064083;28;19916;-77
2022/09/17 12:36:19;;;;;;;;;;;17.70;56.20;;;;;;5066892;28;19912;-77
2022/09/17 12:38:45;;;;;;;;;;;18.00;57.60;;;;;;5060159;28;19916;-76
2022/09/17 12:41:13;;;;;;;;;;;17.80;57.20;;;;;;5064411;28;19931;-77
2022/09/17 12:43:57;;;;;;;;;;;18.10;58.70;;;;;;5055599;28;19916;-75
2022/09/17 12:46:42;;;;;;;;;;;17.90;56.60;;;;;;5053226;28;19912;-76
2022/09/17 12:49:18;;;;;;;;;;;17.80;57.30;;;;;;5058107;28;19920;-76
2022/09/17 12:51:46;;;;;;;;;;;17.60;56.00;;;;;;5063834;28;19916;-76
2022/09/17 12:54:30;;;;;;;;;;;17.60;56.50;;;;;;5064199;28;19922;-76
2022/09/17 12:57:15;;;;;;;;;;;17.70;56.20;;;;;;5064094;28;19912;-76
2022/09/17 12:59:48;;;;;;;;;;;17.50;56.40;;;;;;5064351;28;19962;-75
2022/09/17 13:02:16;;;;;;;;;;;17.50;56.50;;;;;;5064218;28;19969;-76
2022/09/17 13:04:54;;;;;;;;;;;17.70;56.80;;;;;;5064685;28;20448;-77
2022/09/17 13:07:20;;;;;;;;;;;17.90;57.60;;;;;;5057660;28;20373;-75
2022/09/17 13:09:51;;;;;;;;;;;17.90;56.00;;;;;;5061665;28;19935;-76
2022/09/17 13:12:20;;;;;;;;;;;17.80;55.10;;;;;;5056450;28;19917;-75
2022/09/17 13:15:03;;;;;;;;;;;17.80;56.40;;;;;;5056058;28;19946;-76
2022/09/17 13:17:38;;;;;;;;;;;17.70;57.10;;;;;;5084104;27;20000;-75
2022/09/17 13:20:14;;;;;;;;;;;18.00;56.30;;;;;;5082498;27;19924;-76
2022/09/17 13:22:44;;;;;;;;;;;17.90;56.50;;;;;;5047933;28;19975;-75
2022/09/17 13:25:10;;;;;;;;;;;17.80;55.30;;;;;;5057209;28;19921;-76
2022/09/17 13:27:37;;;;;;;;;;;17.80;55.90;;;;;;5078038;28;19920;-76
2022/09/17 13:30:06;;;;;;;;;;;17.70;56.50;;;;;;5048126;28;19924;-76
2022/09/17 13:32:34;;;;;;;;;;;17.90;57.40;;;;;;5048063;28;19920;-76
2022/09/17 13:35:05;;;;;;;;;;;17.70;57.10;;;;;;5053339;28;19958;-76
2022/09/17 13:37:38;;;;;;;;;;;17.90;58.80;;;;;;5058995;28;19923;-75
2022/09/17 13:40:05;;;;;;;;;;;17.80;56.80;;;;;;5055760;28;19923;-75
2022/09/17 13:42:44;;;;;;;;;;;17.60;58.40;;;;;;5054490;28;19920;-74
2022/09/17 13:45:16;;;;;;;;;;;17.80;57.90;;;;;;5048898;28;19920;-76
2022/09/17 13:47:55;;;;;;;;;;;17.70;57.90;;;;;;5049946;28;19963;-75
2022/09/17 13:50:35;;;;;;;;;;;17.70;57.50;;;;;;5048734;28;19933;-75
2022/09/17 13:53:13;;;;;;;;;;;17.90;58.90;;;;;;5049696;28;19921;-75
2022/09/17 13:55:41;;;;;;;;;;;18.00;58.80;;;;;;5050720;28;19927;-76
2022/09/17 13:58:30;;;;;;;;;;;17.80;57.50;;;;;;5051631;28;19924;-76
2022/09/17 14:00:55;;;;;;;;;;;17.90;58.20;;;;;;5044923;28;19932;-75
2022/09/17 14:03:27;;;;;;;;;;;17.80;57.30;;;;;;5056597;28;20316;-84
2022/09/17 14:05:53;;;;;;;;;;;17.80;57.50;;;;;;5047358;28;19920;-77
2022/09/17 14:08:27;;;;;;;;;;;17.80;56.60;;;;;;5049216;28;20762;-77
2022/09/17 14:10:53;;;;;;;;;;;17.90;57.10;;;;;;5060736;28;20390;-77
2022/09/17 14:13:38;;;;;;;;;;;17.90;55.40;;;;;;5062924;28;19916;-77
2022/09/17 14:16:22;;;;;;;;;;;17.80;56.50;;;;;;5049448;28;19916;-77
2022/09/17 14:18:55;;;;;;;;;;;17.90;56.90;;;;;;5053343;28;20031;-77
2022/09/17 14:21:24;;;;;;;;;;;17.70;57.10;;;;;;5051321;28;20314;-77
2022/09/17 14:23:54;;;;;;;;;;;17.80;56.60;;;;;;5055743;28;20013;-77
2022/09/17 14:26:30;;;;;;;;;;;17.70;56.20;;;;;;5050805;28;19924;-76
2022/09/17 14:28:58;;;;;;;;;;;17.70;56.50;;;;;;5050018;28;19912;-77
2022/09/17 14:31:29;;;;;;;;;;;17.70;54.70;;;;;;5049947;28;19921;-76
2022/09/17 14:33:54;;;;;;;;;;;17.60;56.00;;;;;;5049966;28;20373;-77